Time;durP1;ratioP1;P1;durP2;ratioP2;P2;SDS_P1;SDS_P2;PMS_P1;PMS_P2;Temp;Humidity;BMP_temperature;BMP_pressure;BME280_temperature;BME280_humidity;BME280_pressure;Samples;Min_cycle;Max_cycle;Signal;HPM_P1;HPM_P2
2023/07/13 00:00:43;;;;;;;6.55;3.22;;;;;;;21.56;70.51;94835.53;4924868;29;20211;-75
2023/07/13 00:03:13;;;;;;;4.50;3.13;;;;;;;21.57;72.53;94835.16;4914341;29;20212;-75
2023/07/13 00:05:41;;;;;;;7.00;3.83;;;;;;;21.46;71.50;94837.06;4913798;29;20287;-75
2023/07/13 00:08:11;;;;;;;5.78;3.47;;;;;;;21.30;71.86;94824.88;4924479;29;20329;-76
2023/07/13 00:10:41;;;;;;;5.85;3.35;;;;;;;21.33;71.40;94835.09;4913440;29;20299;-75
2023/07/13 00:13:08;;;;;;;10.55;3.63;;;;;;;21.35;70.30;94828.00;4913761;29;20291;-75
2023/07/13 00:15:35;;;;;;;8.15;4.15;;;;;;;21.33;70.22;94840.59;4925551;29;20334;-75
2023/07/13 00:18:02;;;;;;;5.05;3.70;;;;;;;21.34;70.40;94825.63;4913608;29;20259;-76
2023/07/13 00:20:29;;;;;;;6.65;3.20;;;;;;;21.27;70.54;94829.97;4916538;29;20244;-75
2023/07/13 00:22:56;;;;;;;6.90;4.03;;;;;;;21.27;71.06;94827.22;4913639;29;20259;-76
2023/07/13 00:25:27;;;;;;;5.18;3.78;;;;;;;21.31;70.85;94820.94;4922685;29;20295;-76
2023/07/13 00:27:54;;;;;;;6.47;4.50;;;;;;;21.37;70.89;94819.34;4919649;29;20216;-75
2023/07/13 00:30:21;;;;;;;6.95;3.47;;;;;;;21.36;72.17;94818.56;4913503;29;20264;-75
2023/07/13 00:32:48;;;;;;;7.03;3.53;;;;;;;21.30;72.84;94817.38;4921021;29;20212;-76
2023/07/13 00:35:16;;;;;;;10.70;4.05;;;;;;;21.22;73.51;94824.84;4916760;29;20208;-76
2023/07/13 00:37:42;;;;;;;6.07;3.33;;;;;;;21.14;74.05;94823.22;4913689;29;20283;-76
2023/07/13 00:40:12;;;;;;;8.02;3.55;;;;;;;21.09;74.56;94815.34;4915317;29;20209;-75
2023/07/13 00:42:41;;;;;;;7.43;3.60;;;;;;;21.10;75.10;94819.66;4921586;29;20284;-75
2023/07/13 00:45:46;;;;;;;6.82;4.00;;;;;;;21.04;74.68;94829.50;4912887;29;20220;-75
2023/07/13 00:48:16;;;;;;;9.43;3.55;;;;;;;21.09;74.49;94818.09;4914992;29;20239;-75
2023/07/13 00:50:44;;;;;;;5.95;3.80;;;;;;;21.10;74.23;94827.94;4919777;29;20196;-75
2023/07/13 00:53:11;;;;;;;6.07;4.05;;;;;;;21.14;73.84;94823.22;4915416;29;20223;-75
2023/07/13 00:55:38;;;;;;;6.30;3.90;;;;;;;21.11;73.93;94812.97;4913198;29;20205;-75
2023/07/13 00:58:07;;;;;;;7.22;3.78;;;;;;;21.13;73.90;94820.84;4912723;29;20688;-76
2023/07/13 01:00:37;;;;;;;6.05;3.58;;;;;;;21.15;74.77;94813.78;4918094;29;20236;-74
2023/07/13 01:03:05;;;;;;;7.28;3.47;;;;;;;20.90;75.54;94810.97;4914249;29;20205;-75
2023/07/13 01:05:34;;;;;;;6.55;3.92;;;;;;;20.86;75.18;94801.13;4912551;29;20212;-74
2023/07/13 01:08:03;;;;;;;6.25;3.78;;;;;;;20.74;74.55;94818.00;4923694;29;20263;-75
2023/07/13 01:10:38;;;;;;;4.78;3.78;;;;;;;20.60;74.73;94809.66;4916575;29;20281;-75
2023/07/13 01:13:06;;;;;;;6.50;3.67;;;;;;;20.60;73.88;94809.66;4916675;29;20200;-75
2023/07/13 01:15:41;;;;;;;8.63;3.80;;;;;;;20.67;73.65;94804.97;4912690;29;20266;-75
2023/07/13 01:18:10;;;;;;;6.25;3.60;;;;;;;20.76;73.68;94807.38;4921810;29;20490;-76
2023/07/13 01:20:38;;;;;;;9.00;3.80;;;;;;;20.76;73.56;94804.63;4912329;29;20256;-75
2023/07/13 01:23:08;;;;;;;6.75;3.67;;;;;;;20.86;74.27;94803.88;4912885;29;20205;-75
2023/07/13 01:25:36;;;;;;;7.40;4.20;;;;;;;20.83;74.15;94801.88;4909899;29;20213;-75
2023/07/13 01:28:04;;;;;;;7.32;4.10;;;;;;;20.74;76.04;94795.97;4909586;29;20197;-75
2023/07/13 01:30:31;;;;;;;6.18;3.78;;;;;;;20.59;75.36;94803.38;4907616;29;20197;-75
2023/07/13 01:32:58;;;;;;;6.18;3.50;;;;;;;20.69;75.32;94807.34;4912551;29;20204;-75
2023/07/13 01:35:26;;;;;;;4.68;3.28;;;;;;;20.54;75.91;94812.78;4919898;29;20675;-75
2023/07/13 01:37:54;;;;;;;7.85;3.55;;;;;;;20.55;76.63;94819.88;4914539;29;20267;-75
2023/07/13 01:40:22;;;;;;;7.60;3.83;;;;;;;20.52;76.31;94803.34;4919931;29;20200;-75
2023/07/13 01:42:49;;;;;;;6.60;3.95;;;;;;;20.34;76.87;94814.25;4931251;29;20666;-75
2023/07/13 01:45:15;;;;;;;5.22;3.70;;;;;;;20.43;76.66;94809.19;4917193;29;20742;-75
2023/07/13 01:47:42;;;;;;;7.90;4.00;;;;;;;20.48;76.93;94797.84;4918059;29;20216;-75
2023/07/13 01:50:10;;;;;;;6.30;3.95;;;;;;;20.45;77.59;94809.59;4915256;29;20236;-74
2023/07/13 01:52:37;;;;;;;6.78;3.88;;;;;;;20.40;78.09;94801.72;4915522;29;20212;-75
2023/07/13 01:55:05;;;;;;;5.03;3.75;;;;;;;20.40;78.37;94800.91;4919507;29;20208;-75
2023/07/13 01:57:33;;;;;;;10.23;4.07;;;;;;;20.33;76.69;94807.16;4915806;29;20760;-75
2023/07/13 02:00:00;;;;;;;9.43;4.15;;;;;;;20.36;77.49;94795.41;4923881;29;20201;-75
2023/07/13 02:02:27;;;;;;;9.13;4.03;;;;;;;20.33;77.44;94798.91;4918734;29;20538;-75
2023/07/13 02:04:53;;;;;;;7.90;4.18;;;;;;;20.21;77.82;94807.50;4915620;29;20212;-75
2023/07/13 02:07:20;;;;;;;9.23;4.20;;;;;;;20.24;77.77;94814.94;4925853;29;20215;-75
2023/07/13 02:09:47;;;;;;;5.95;3.75;;;;;;;20.22;78.22;94814.56;4915260;29;20244;-75
2023/07/13 02:12:14;;;;;;;8.95;4.07;;;;;;;20.13;78.85;94814.91;4922176;29;20207;-75
2023/07/13 02:14:42;;;;;;;7.60;4.20;;;;;;;20.16;79.06;94814.13;4921107;29;20699;-75
2023/07/13 02:17:10;;;;;;;6.07;4.00;;;;;;;20.05;79.10;94815.25;4929440;29;20215;-75
2023/07/13 02:19:37;;;;;;;6.10;4.30;;;;;;;20.10;78.95;94825.88;4920859;29;20255;-75
2023/07/13 02:22:04;;;;;;;5.90;4.07;;;;;;;19.94;79.15;94817.16;4914772;29;20256;-75
2023/07/13 02:24:31;;;;;;;6.35;4.00;;;;;;;19.90;79.43;94821.81;4914621;29;20208;-75
2023/07/13 02:26:58;;;;;;;6.63;4.70;;;;;;;19.54;80.91;94816.06;4921967;29;20300;-74
2023/07/13 02:29:24;;;;;;;5.18;3.85;;;;;;;19.60;80.05;94820.03;4918809;29;20228;-75
2023/07/13 02:31:53;;;;;;;8.13;3.55;;;;;;;19.42;80.02;94825.31;4923247;29;20215;-75
2023/07/13 02:34:19;;;;;;;6.18;3.63;;;;;;;19.39;79.48;94830.81;4907347;29;20208;-75
2023/07/13 02:36:46;;;;;;;8.23;3.80;;;;;;;19.49;79.40;94835.63;4924392;29;20203;-75
2023/07/13 02:39:14;;;;;;;6.75;4.07;;;;;;;19.64;78.72;94831.84;4917247;29;20216;-75
2023/07/13 02:41:42;;;;;;;10.70;3.85;;;;;;;19.75;78.93;94827.22;4926113;29;20215;-75
2023/07/13 02:44:08;;;;;;;7.82;4.07;;;;;;;19.77;79.26;94824.09;4925966;29;20212;-75
2023/07/13 02:46:37;;;;;;;5.57;3.60;;;;;;;19.81;79.81;94817.44;4916428;29;20581;-74
2023/07/13 02:49:05;;;;;;;6.75;4.15;;;;;;;19.92;79.54;94820.28;4922674;29;20232;-74
2023/07/13 02:51:33;;;;;;;6.70;3.67;;;;;;;19.88;79.49;94820.25;4917618;29;20751;-74
2023/07/13 02:54:00;;;;;;;8.27;4.28;;;;;;;19.82;79.40;94824.50;4921365;29;20296;-74
2023/07/13 02:56:29;;;;;;;5.40;3.90;;;;;;;20.00;79.26;94823.84;4915600;29;20208;-75
2023/07/13 02:58:56;;;;;;;5.90;4.07;;;;;;;19.86;80.12;94822.56;4921455;29;20235;-74
2023/07/13 03:01:23;;;;;;;5.90;4.13;;;;;;;19.85;79.44;94826.50;4917976;29;20200;-74
2023/07/13 03:03:51;;;;;;;7.00;3.95;;;;;;;19.80;79.90;94826.06;4913622;29;20652;-74
2023/07/13 03:06:19;;;;;;;4.60;3.50;;;;;;;19.68;80.11;94838.13;4915854;29;20660;-75
2023/07/13 03:08:46;;;;;;;6.85;4.68;;;;;;;19.77;79.71;94830.38;4922156;29;20232;-75
2023/07/13 03:11:15;;;;;;;6.97;4.07;;;;;;;20.08;78.80;94833.75;4913061;29;20204;-75
2023/07/13 03:13:42;;;;;;;11.48;4.60;;;;;;;20.13;77.81;94836.13;4915900;29;20673;-75
2023/07/13 03:16:10;;;;;;;8.57;4.30;;;;;;;20.38;77.47;94836.28;4928917;29;20212;-76
2023/07/13 03:18:38;;;;;;;7.47;4.30;;;;;;;20.75;75.58;94823.13;4926531;29;20824;-76
2023/07/13 03:21:06;;;;;;;6.68;4.43;;;;;;;21.26;73.69;94820.13;4916855;29;20774;-74
2023/07/13 03:23:34;;;;;;;7.28;4.60;;;;;;;21.72;72.19;94830.44;4914226;29;20220;-75
2023/07/13 03:26:06;;;;;;;8.70;4.38;;;;;;;22.30;71.28;94829.19;4924139;29;20209;-75
2023/07/13 03:28:33;;;;;;;7.80;4.20;;;;;;;22.78;69.69;94818.44;4917785;29;20250;-75
2023/07/13 03:31:01;;;;;;;7.25;4.07;;;;;;;23.21;68.29;94824.56;4914476;29;20208;-75
2023/07/13 03:33:27;;;;;;;6.60;4.07;;;;;;;23.57;66.49;94829.88;4924620;29;20624;-75
2023/07/13 03:35:54;;;;;;;7.22;4.47;;;;;;;24.10;65.18;94827.47;4922213;29;20212;-75
2023/07/13 03:38:21;;;;;;;6.15;5.00;;;;;;;24.48;63.37;94827.50;4920003;29;20232;-75
2023/07/13 03:40:49;;;;;;;9.98;4.65;;;;;;;24.88;61.43;94827.84;4920464;29;20211;-75
2023/07/13 03:43:16;;;;;;;6.88;4.80;;;;;;;25.33;60.48;94820.94;4925965;29;20263;-75
2023/07/13 03:45:43;;;;;;;11.20;5.05;;;;;;;25.50;59.40;94825.47;4918484;29;20208;-75
2023/07/13 03:48:10;;;;;;;9.23;5.00;;;;;;;26.13;58.65;94822.91;4918116;29;20216;-75
2023/07/13 03:50:38;;;;;;;6.63;4.78;;;;;;;26.31;57.63;94817.06;4929090;29;20627;-75
2023/07/13 03:53:05;;;;;;;12.90;7.00;;;;;;;26.82;56.74;94823.25;4917018;29;20243;-75
2023/07/13 03:55:32;;;;;;;12.95;5.65;;;;;;;27.36;54.80;94817.38;4913722;29;20209;-75
2023/07/13 03:58:01;;;;;;;7.45;4.95;;;;;;;27.55;53.78;94820.13;4913472;29;20204;-76
2023/07/13 04:00:28;;;;;;;6.28;5.25;;;;;;;28.46;51.76;94814.78;4912985;29;20272;-75
2023/07/13 04:02:58;;;;;;;7.63;5.07;;;;;;;28.52;51.74;94813.03;4913629;29;20205;-75
2023/07/13 04:05:25;;;;;;;6.18;5.22;;;;;;;29.43;49.93;94808.88;4913438;29;20292;-75
2023/07/13 04:07:51;;;;;;;9.48;5.35;;;;;;;29.37;49.74;94813.44;4924846;29;20208;-77
2023/07/13 04:10:18;;;;;;;7.00;5.13;;;;;;;30.00;48.55;94812.69;4906114;29;20232;-77
2023/07/13 04:12:45;;;;;;;8.85;5.13;;;;;;;29.51;49.08;94815.81;4913604;29;20209;-77
2023/07/13 04:15:13;;;;;;;7.68;5.60;;;;;;;30.51;47.04;94807.78;4913015;29;20279;-75
2023/07/13 04:17:40;;;;;;;10.02;5.95;;;;;;;30.83;46.93;94805.91;4921073;29;20212;-76
2023/07/13 04:20:08;;;;;;;8.55;5.35;;;;;;;31.31;46.24;94802.50;4919461;29;20240;-76
2023/07/13 04:22:34;;;;;;;7.65;5.93;;;;;;;31.13;46.03;94801.63;4913055;29;20304;-75
2023/07/13 04:25:01;;;;;;;9.13;6.45;;;;;;;31.19;46.16;94816.59;4922160;29;20543;-76
2023/07/13 04:27:28;;;;;;;9.00;6.53;;;;;;;30.80;46.63;94824.38;4913535;29;20209;-76
2023/07/13 04:29:55;;;;;;;10.70;6.55;;;;;;;30.66;45.99;94831.25;4916833;29;20295;-76
2023/07/13 04:32:23;;;;;;;10.25;6.45;;;;;;;31.13;45.37;94838.03;4917192;29;20303;-76
2023/07/13 04:34:54;;;;;;;11.93;7.22;;;;;;;31.31;45.61;94829.72;4926458;29;20207;-76
2023/07/13 04:37:21;;;;;;;14.15;6.97;;;;;;;30.87;45.35;94829.72;4910629;29;20304;-75
2023/07/13 04:39:48;;;;;;;9.80;6.90;;;;;;;31.02;45.68;94830.78;4914295;29;20208;-77
2023/07/13 04:42:14;;;;;;;10.25;7.43;;;;;;;32.22;43.33;94832.25;4927437;29;20734;-77
2023/07/13 04:44:41;;;;;;;12.38;7.68;;;;;;;32.70;42.10;94830.59;4922972;29;20219;-75
2023/07/13 04:47:08;;;;;;;10.60;7.60;;;;;;;31.69;44.10;94837.94;4915328;29;20207;-75
2023/07/13 04:49:36;;;;;;;8.40;7.35;;;;;;;33.11;41.44;94830.00;4924287;29;20658;-76
2023/07/13 04:52:03;;;;;;;10.48;7.60;;;;;;;32.83;42.00;94828.44;4923340;29;20205;-76
2023/07/13 04:54:30;;;;;;;9.63;7.00;;;;;;;34.13;40.70;94839.78;4920430;29;20258;-76
2023/07/13 04:56:57;;;;;;;8.93;7.22;;;;;;;33.45;41.11;94853.41;4912602;29;20623;-76
2023/07/13 04:59:24;;;;;;;9.60;7.85;;;;;;;34.09;40.04;94853.22;4919982;29;20208;-76
2023/07/13 05:01:50;;;;;;;9.55;6.80;;;;;;;33.48;40.57;94860.91;4919718;29;20208;-74
2023/07/13 05:04:18;;;;;;;11.93;7.15;;;;;;;33.52;40.25;94853.06;4909361;29;20210;-75
2023/07/13 05:06:46;;;;;;;9.55;7.38;;;;;;;33.60;40.43;94851.50;4919883;29;20204;-79
2023/07/13 05:09:13;;;;;;;10.38;7.13;;;;;;;33.72;40.44;94853.34;4920805;29;21216;-80
2023/07/13 05:11:40;;;;;;;9.43;7.30;;;;;;;34.36;39.16;94850.31;4914482;29;20298;-80
2023/07/13 05:14:07;;;;;;;11.90;8.43;;;;;;;34.49;39.03;94864.94;4915474;29;20231;-80
2023/07/13 05:16:33;;;;;;;10.15;7.97;;;;;;;34.37;38.81;94856.72;4927785;29;20204;-82
2023/07/13 05:19:00;;;;;;;11.48;8.80;;;;;;;34.85;38.92;94860.38;4921949;29;20256;-76
2023/07/13 05:21:27;;;;;;;12.23;9.27;;;;;;;34.50;39.17;94860.09;4914652;29;20244;-76
2023/07/13 05:23:55;;;;;;;10.82;8.60;;;;;;;34.86;38.99;94861.91;4912785;29;20256;-76
2023/07/13 05:26:22;;;;;;;15.70;9.20;;;;;;;33.09;41.75;94866.19;4919267;29;20204;-76
2023/07/13 05:28:49;;;;;;;10.90;9.23;;;;;;;32.78;41.98;94857.94;4912613;29;20212;-76
2023/07/13 05:31:16;;;;;;;13.20;8.55;;;;;;;34.86;38.67;94857.03;4912707;29;20232;-76
2023/07/13 05:33:42;;;;;;;11.80;8.93;;;;;;;34.83;38.14;94865.69;4910850;29;20567;-76
2023/07/13 05:36:09;;;;;;;13.38;8.70;;;;;;;34.26;38.91;94862.06;4912609;29;20208;-76
2023/07/13 05:38:36;;;;;;;12.80;9.40;;;;;;;35.42;37.24;94854.56;4914113;29;20212;-76
2023/07/13 05:41:07;;;;;;;12.70;8.85;;;;;;;35.51;37.20;94868.59;4918768;29;20278;-76
2023/07/13 05:43:36;;;;;;;13.60;8.90;;;;;;;36.56;35.86;94866.75;4913167;29;20204;-77
2023/07/13 05:46:03;;;;;;;15.05;9.63;;;;;;;37.73;33.88;94858.97;4912702;29;20255;-76
2023/07/13 05:48:30;;;;;;;12.57;9.00;;;;;;;38.13;33.43;94865.78;4913317;29;20204;-76
2023/07/13 05:50:56;;;;;;;15.82;8.98;;;;;;;37.21;33.68;94869.44;4911942;29;20644;-76
2023/07/13 05:53:23;;;;;;;12.27;9.25;;;;;;;37.70;33.77;94862.81;4911226;29;20252;-76
2023/07/13 05:55:52;;;;;;;10.35;8.70;;;;;;;38.63;33.20;94866.16;4910999;29;20212;-76
2023/07/13 05:58:24;;;;;;;11.40;8.20;;;;;;;38.60;32.88;94867.94;4911141;29;20265;-76
2023/07/13 06:01:00;;;;;;;14.70;9.10;;;;;;;38.19;32.83;94873.03;4910451;29;20207;-77
2023/07/13 06:03:27;;;;;;;12.13;8.90;;;;;;;38.50;32.25;94860.91;4910710;29;20240;-75
2023/07/13 06:05:54;;;;;;;15.05;9.20;;;;;;;38.00;33.74;94849.94;4910826;29;20200;-75
2023/07/13 06:08:21;;;;;;;14.45;9.18;;;;;;;38.46;32.53;94843.34;4911466;29;20204;-75
2023/07/13 06:10:47;;;;;;;9.85;8.65;;;;;;;38.96;32.33;94845.69;4910947;29;20311;-74
2023/07/13 06:13:14;;;;;;;14.20;9.63;;;;;;;38.19;32.35;94846.78;4910657;29;20225;-78
2023/07/13 06:15:42;;;;;;;12.68;8.73;;;;;;;38.31;32.75;94856.91;4910937;29;20289;-78
2023/07/13 06:18:09;;;;;;;12.15;8.77;;;;;;;38.58;31.68;94864.81;4910880;29;20208;-75
2023/07/13 06:20:36;;;;;;;13.15;8.95;;;;;;;36.55;34.08;94864.44;4910648;29;20534;-75
2023/07/13 06:23:04;;;;;;;17.23;10.23;;;;;;;35.09;36.77;94863.94;4911725;29;20213;-77
2023/07/13 06:25:31;;;;;;;12.88;9.30;;;;;;;34.98;37.12;94872.16;4913772;29;20256;-74
2023/07/13 06:27:57;;;;;;;11.68;8.85;;;;;;;35.47;37.04;94868.00;4912051;29;20264;-77
2023/07/13 06:30:24;;;;;;;12.00;8.50;;;;;;;37.16;33.68;94867.31;4914120;29;20232;-76
2023/07/13 06:32:53;;;;;;;13.27;8.77;;;;;;;38.24;33.37;94863.03;4914666;29;20226;-76
2023/07/13 06:35:19;;;;;;;11.73;7.70;;;;;;;36.63;36.01;94866.34;4913219;29;20676;-76
2023/07/13 06:37:47;;;;;;;11.27;8.13;;;;;;;36.78;35.42;94860.66;4914660;29;20204;-75
2023/07/13 06:40:14;;;;;;;10.63;8.20;;;;;;;37.21;34.64;94858.91;4914828;29;20342;-76
2023/07/13 06:42:41;;;;;;;11.48;7.53;;;;;;;36.73;34.38;94852.13;4914595;29;20264;-77
2023/07/13 06:45:09;;;;;;;10.15;6.63;;;;;;;36.28;36.67;94857.09;4913237;29;20245;-75
2023/07/13 06:47:36;;;;;;;15.23;7.72;;;;;;;37.57;32.88;94851.84;4912192;29;20208;-77
2023/07/13 06:50:04;;;;;;;8.55;6.95;;;;;;;37.55;32.64;94853.63;4913435;29;20232;-76
2023/07/13 06:52:31;;;;;;;14.15;7.38;;;;;;;38.54;31.50;94857.88;4913737;29;20207;-75
2023/07/13 06:54:58;;;;;;;19.23;7.82;;;;;;;37.69;33.94;94852.75;4914401;29;20680;-76
2023/07/13 06:57:24;;;;;;;11.63;6.85;;;;;;;37.40;31.79;94847.31;4913987;29;20197;-76
2023/07/13 06:59:51;;;;;;;10.43;6.72;;;;;;;35.00;35.43;94863.97;4914142;29;20213;-75
2023/07/13 07:02:18;;;;;;;8.32;6.45;;;;;;;35.21;34.74;94857.25;4914539;29;20208;-76
2023/07/13 07:04:44;;;;;;;11.98;6.90;;;;;;;35.04;34.78;94864.56;4914393;29;20208;-75
2023/07/13 07:07:13;;;;;;;8.45;6.22;;;;;;;35.51;35.14;94865.78;4913851;29;20623;-77
2023/07/13 07:09:39;;;;;;;7.57;6.38;;;;;;;34.51;35.54;94868.03;4912161;29;20272;-77
2023/07/13 07:12:07;;;;;;;9.40;6.97;;;;;;;33.27;37.93;94873.09;4914216;29;20201;-75
2023/07/13 07:14:34;;;;;;;8.45;6.68;;;;;;;34.63;35.73;94857.03;4911246;29;20277;-77
2023/07/13 07:17:01;;;;;;;8.13;6.15;;;;;;;36.20;33.56;94855.94;4914125;29;20211;-75
2023/07/13 07:19:28;;;;;;;9.18;7.28;;;;;;;36.78;32.27;94851.41;4913499;29;20715;-76
2023/07/13 07:21:55;;;;;;;9.70;6.38;;;;;;;36.93;32.45;94855.72;4914160;29;20248;-77
2023/07/13 07:24:23;;;;;;;9.88;6.93;;;;;;;38.03;30.79;94854.59;4914113;29;20271;-77
2023/07/13 07:26:50;;;;;;;6.97;5.85;;;;;;;38.53;29.52;94854.22;4913654;29;20255;-75
2023/07/13 07:29:17;;;;;;;7.28;6.45;;;;;;;37.15;30.89;94854.44;4914018;29;20613;-75
2023/07/13 07:31:43;;;;;;;11.55;6.60;;;;;;;37.12;31.80;94849.78;4913570;29;20287;-75
2023/07/13 07:34:10;;;;;;;7.75;6.63;;;;;;;36.76;31.88;94857.56;4913734;29;20260;-76
2023/07/13 07:36:37;;;;;;;9.57;6.57;;;;;;;36.41;32.56;94846.28;4912988;29;20260;-76
2023/07/13 07:39:04;;;;;;;11.25;6.90;;;;;;;37.13;32.92;94845.69;4913622;29;20579;-77
2023/07/13 07:41:33;;;;;;;10.00;6.10;;;;;;;37.31;32.02;94840.50;4913164;29;20299;-76
2023/07/13 07:43:59;;;;;;;11.48;6.70;;;;;;;36.57;32.36;94844.94;4913229;29;20204;-76
2023/07/13 07:46:26;;;;;;;10.18;6.88;;;;;;;35.78;33.58;94831.69;4912878;29;20204;-76
2023/07/13 07:48:53;;;;;;;9.95;6.57;;;;;;;35.95;33.08;94835.53;4913398;29;20264;-75
2023/07/13 07:51:19;;;;;;;11.00;6.97;;;;;;;36.92;32.61;94827.97;4912709;29;20415;-76
2023/07/13 07:53:46;;;;;;;9.48;6.82;;;;;;;36.39;34.71;94834.69;4913067;29;20205;-76
2023/07/13 07:56:13;;;;;;;10.70;6.88;;;;;;;37.39;33.42;94831.59;4912348;29;20227;-76
2023/07/13 07:58:41;;;;;;;10.55;6.47;;;;;;;37.16;32.53;94828.53;4912407;29;20211;-75
2023/07/13 08:01:08;;;;;;;11.88;7.07;;;;;;;35.15;35.74;94825.34;4911702;29;20272;-76
2023/07/13 08:03:35;;;;;;;14.48;7.22;;;;;;;35.65;34.48;94822.72;4912775;29;20196;-75
2023/07/13 08:06:02;;;;;;;10.15;6.78;;;;;;;35.31;35.29;94821.34;4912665;29;20257;-75
2023/07/13 08:08:29;;;;;;;11.27;7.40;;;;;;;34.93;36.50;94816.47;4910603;29;20205;-75
2023/07/13 08:10:56;;;;;;;10.60;7.15;;;;;;;34.72;35.83;94809.09;4911777;29;20240;-77
2023/07/13 08:13:23;;;;;;;10.10;6.72;;;;;;;34.97;35.38;94803.00;4912195;29;20232;-75
2023/07/13 08:15:51;;;;;;;10.80;6.50;;;;;;;35.40;35.42;94795.13;4915909;29;20378;-76
2023/07/13 08:18:18;;;;;;;11.07;6.55;;;;;;;36.41;34.76;94797.50;4915801;29;20212;-74
2023/07/13 08:20:44;;;;;;;11.65;6.90;;;;;;;35.92;34.50;94805.50;4912702;29;20301;-75
2023/07/13 08:23:13;;;;;;;10.60;6.28;;;;;;;36.48;33.93;94799.94;4911733;29;20216;-76
2023/07/13 08:25:39;;;;;;;10.07;6.50;;;;;;;35.80;34.27;94800.19;4911957;29;20604;-75
2023/07/13 08:28:06;;;;;;;10.68;6.80;;;;;;;35.52;34.09;94794.03;4912903;29;20264;-73
2023/07/13 08:30:33;;;;;;;13.07;7.18;;;;;;;35.27;34.36;94793.34;4911458;29;20740;-75
2023/07/13 08:33:01;;;;;;;9.98;6.20;;;;;;;35.18;35.52;94801.09;4912550;29;20212;-75
2023/07/13 08:35:28;;;;;;;9.45;6.07;;;;;;;34.96;35.01;94792.22;4912657;29;20205;-75
2023/07/13 08:37:55;;;;;;;10.85;6.72;;;;;;;34.72;34.82;94792.97;4912531;29;20568;-74
2023/07/13 08:40:26;;;;;;;13.55;7.22;;;;;;;35.37;33.69;94787.63;4912774;29;20631;-75
2023/07/13 08:42:57;;;;;;;9.30;6.70;;;;;;;35.31;33.85;94786.75;4912483;29;20208;-76
2023/07/13 08:45:29;;;;;;;8.27;6.78;;;;;;;35.57;33.75;94784.88;4900726;29;20208;-75
2023/07/13 08:48:01;;;;;;;9.98;6.38;;;;;;;35.62;35.69;94779.34;4911997;29;20212;-76
2023/07/13 08:50:35;;;;;;;9.45;6.90;;;;;;;34.92;34.18;94778.31;4913008;29;20259;-76
2023/07/13 08:53:04;;;;;;;10.68;6.22;;;;;;;34.64;35.38;94779.78;4912094;29;20271;-76
2023/07/13 08:55:37;;;;;;;8.25;6.45;;;;;;;35.08;33.99;94783.50;4912651;29;20217;-76
2023/07/13 08:58:10;;;;;;;9.55;6.93;;;;;;;35.45;33.94;94785.97;4912832;29;20209;-75
2023/07/13 09:00:46;;;;;;;8.05;6.32;;;;;;;35.28;33.92;94788.47;4912737;29;20232;-75
2023/07/13 09:03:21;;;;;;;8.35;6.53;;;;;;;35.21;33.69;94786.03;4912132;29;20386;-75
2023/07/13 09:05:54;;;;;;;12.40;6.85;;;;;;;35.83;34.74;94799.94;4912818;29;20199;-75
2023/07/13 09:08:38;;;;;;;11.63;6.47;;;;;;;35.39;34.48;94808.44;4912885;29;20318;-75
2023/07/13 09:11:15;;;;;;;13.45;6.88;;;;;;;35.23;35.32;94812.47;4912525;29;20250;-75
2023/07/13 09:13:47;;;;;;;8.25;7.10;;;;;;;35.48;36.58;94816.00;4911717;29;20231;-75
2023/07/13 09:16:14;;;;;;;10.85;6.35;;;;;;;35.32;34.37;94810.84;4912280;29;20204;-75
2023/07/13 09:18:45;;;;;;;11.73;7.30;;;;;;;34.50;35.88;94815.84;4911577;29;20601;-74
2023/07/13 09:21:16;;;;;;;11.63;6.80;;;;;;;34.70;36.32;94817.28;4911610;29;20244;-75
2023/07/13 09:23:43;;;;;;;13.30;7.63;;;;;;;35.37;36.02;94810.16;4912080;29;20212;-74
2023/07/13 09:26:16;;;;;;;11.93;7.50;;;;;;;35.34;35.38;94802.69;4912654;29;20219;-75
2023/07/13 09:28:44;;;;;;;10.00;7.00;;;;;;;34.88;36.08;94811.50;4911881;29;20577;-75
2023/07/13 09:31:16;;;;;;;10.80;7.60;;;;;;;34.68;36.68;94820.56;4913062;29;20390;-75
2023/07/13 09:33:43;;;;;;;12.30;7.90;;;;;;;35.48;36.38;94813.97;4912361;29;20287;-75
2023/07/13 09:36:23;;;;;;;9.80;7.50;;;;;;;35.26;36.15;94808.69;4912432;29;20215;-75
2023/07/13 09:38:54;;;;;;;12.02;7.70;;;;;;;36.03;36.34;94810.53;4911883;29;20307;-75
2023/07/13 09:41:30;;;;;;;14.43;7.05;;;;;;;35.59;35.28;94802.09;4912214;29;20663;-76
2023/07/13 09:44:11;;;;;;;10.32;7.00;;;;;;;36.19;35.81;94792.31;4912349;29;20630;-76
2023/07/13 09:46:38;;;;;;;10.27;7.28;;;;;;;35.86;35.61;94798.97;4911770;29;20216;-76
2023/07/13 09:49:05;;;;;;;11.18;7.68;;;;;;;35.23;36.46;94809.66;4911951;29;20558;-75
2023/07/13 09:51:34;;;;;;;12.07;7.93;;;;;;;34.46;37.31;94798.34;4911681;29;20758;-73
2023/07/13 09:54:02;;;;;;;13.00;7.50;;;;;;;34.69;38.44;94781.94;4912186;29;20225;-75
2023/07/13 09:56:30;;;;;;;11.00;7.60;;;;;;;34.93;38.50;94775.03;4912005;29;20206;-76
2023/07/13 09:58:58;;;;;;;10.50;7.75;;;;;;;35.09;35.79;94776.59;4912325;29;20212;-76
2023/07/13 10:01:37;;;;;;;10.98;7.55;;;;;;;35.57;34.46;94765.16;4915771;29;20597;-76
2023/07/13 10:04:12;;;;;;;14.05;7.80;;;;;;;36.42;33.15;94765.97;4915548;29;20260;-76
2023/07/13 10:06:42;;;;;;;13.32;7.75;;;;;;;35.57;35.71;94773.59;4915529;29;20672;-75
2023/07/13 10:09:10;;;;;;;12.65;8.02;;;;;;;35.72;33.59;94760.28;4915180;29;20656;-76
2023/07/13 10:11:38;;;;;;;14.95;7.65;;;;;;;36.18;33.99;94751.25;4915458;29;20275;-77
2023/07/13 10:14:13;;;;;;;10.38;7.25;;;;;;;36.18;34.36;94754.06;4914997;29;20638;-75
2023/07/13 10:16:43;;;;;;;9.75;7.15;;;;;;;36.42;33.20;94749.03;4915129;29;20271;-75
2023/07/13 10:19:15;;;;;;;8.90;6.50;;;;;;;36.07;31.46;94753.91;4915243;29;20216;-74
2023/07/13 10:21:51;;;;;;;8.60;6.28;;;;;;;35.33;32.32;94761.69;4915262;29;20216;-75
2023/07/13 10:24:22;;;;;;;13.10;6.88;;;;;;;35.84;32.92;94756.38;4915086;29;20298;-75
2023/07/13 10:26:56;;;;;;;9.25;6.53;;;;;;;35.69;35.39;94754.84;4914168;29;20208;-75
2023/07/13 10:29:26;;;;;;;12.32;7.32;;;;;;;35.93;32.94;94742.19;4914947;29;20571;-76
2023/07/13 10:31:53;;;;;;;8.98;6.80;;;;;;;35.74;32.98;94740.81;4915221;29;20220;-75
2023/07/13 10:34:20;;;;;;;12.38;6.15;;;;;;;35.65;32.51;94726.84;4915196;29;20317;-75
2023/07/13 10:36:49;;;;;;;12.25;6.72;;;;;;;35.01;33.94;94713.44;4914890;29;20272;-75
2023/07/13 10:39:19;;;;;;;6.05;3.95;;;;;;;34.72;29.53;94713.38;4914437;29;20224;-74
2023/07/13 10:41:51;;;;;;;11.80;6.57;;;;;;;34.90;35.81;94719.66;4914682;29;20232;-73
2023/07/13 10:44:26;;;;;;;12.65;5.25;;;;;;;35.16;30.51;94717.03;4914719;29;20216;-75
2023/07/13 10:46:55;;;;;;;14.65;6.00;;;;;;;35.49;32.87;94721.72;4914599;29;20256;-76
2023/07/13 10:49:23;;;;;;;8.23;5.53;;;;;;;36.07;31.83;94718.03;4915188;29;20259;-76
2023/07/13 10:51:51;;;;;;;7.32;4.97;;;;;;;36.53;29.27;94709.63;4914683;29;20236;-76
2023/07/13 10:54:23;;;;;;;8.38;4.00;;;;;;;36.32;26.75;94705.28;4914695;29;20303;-76
2023/07/13 10:56:53;;;;;;;11.80;4.68;;;;;;;36.27;27.59;94703.16;4915090;29;20205;-76
2023/07/13 10:59:27;;;;;;;10.73;4.35;;;;;;;36.23;26.60;94700.53;4914487;29;20579;-75
2023/07/13 11:01:58;;;;;;;7.80;3.97;;;;;;;36.39;27.92;94693.56;4914547;29;20207;-74
2023/07/13 11:04:27;;;;;;;8.93;4.40;;;;;;;36.12;27.41;94691.91;4914447;29;20679;-76
2023/07/13 11:07:00;;;;;;;10.00;4.00;;;;;;;36.08;27.64;94679.31;4914498;29;20715;-74
2023/07/13 11:09:40;;;;;;;8.35;4.20;;;;;;;35.94;27.47;94692.19;4914895;29;20612;-74
2023/07/13 11:12:28;;;;;;;11.13;4.70;;;;;;;36.39;26.84;94682.28;4914881;29;20346;-74
2023/07/13 11:15:12;;;;;;;8.23;4.32;;;;;;;36.72;27.17;94686.78;4914402;29;20247;-74
2023/07/13 11:17:50;;;;;;;7.45;4.70;;;;;;;36.85;27.25;94684.34;4914323;29;20212;-75
2023/07/13 11:20:39;;;;;;;8.63;4.35;;;;;;;37.00;26.33;94668.06;4913747;29;20299;-75
2023/07/13 11:23:20;;;;;;;9.98;4.65;;;;;;;37.17;26.76;94677.50;4911372;29;20273;-74
2023/07/13 11:25:48;;;;;;;9.10;4.80;;;;;;;37.31;26.87;94676.56;4913879;29;20216;-77
2023/07/13 11:28:19;;;;;;;7.65;4.50;;;;;;;36.93;27.16;94672.09;4914108;29;20307;-73
2023/07/13 11:30:49;;;;;;;6.72;4.53;;;;;;;36.70;27.39;94667.50;4913618;29;20209;-74
2023/07/13 11:33:19;;;;;;;10.88;5.00;;;;;;;36.60;27.49;94658.41;4913841;29;20300;-74
2023/07/13 11:35:54;;;;;;;10.18;4.97;;;;;;;36.33;28.17;94661.69;4914114;29;20205;-73